Time;durP1;ratioP1;P1;durP2;ratioP2;P2;SDS_P1;SDS_P2;PMS_P1;PMS_P2;Temp;Humidity;BMP_temperature;BMP_pressure;BME280_temperature;BME280_humidity;BME280_pressure;Samples;Min_cycle;Max_cycle;Signal;HPM_P1;HPM_P2
2021/04/16 00:00:19;;;;;;;16.58;13.82;;;;;;;8.20;65.94;100931.78;5010894;28;20041;-72
2021/04/16 00:02:45;;;;;;;19.83;13.93;;;;;;;8.20;65.73;100930.94;5010834;28;20100;-72
2021/04/16 00:05:13;;;;;;;22.70;14.60;;;;;;;8.21;65.12;100922.28;5011485;28;20042;-72
2021/04/16 00:07:40;;;;;;;17.65;13.38;;;;;;;8.27;66.15;100922.94;5011526;28;20125;-72
2021/04/16 00:10:12;;;;;;;15.23;13.55;;;;;;;8.30;65.70;100911.59;5011154;28;20096;-72
2021/04/16 00:12:40;;;;;;;18.67;14.05;;;;;;;8.24;66.05;100911.78;5010324;28;20069;-71
2021/04/16 00:15:12;;;;;;;16.55;13.23;;;;;;;8.17;66.20;100900.72;5011177;28;20076;-72
2021/04/16 00:17:38;;;;;;;18.88;15.32;;;;;;;8.10;66.04;100900.06;5010712;28;20136;-71
2021/04/16 00:20:07;;;;;;;25.38;17.33;;;;;;;8.13;66.24;100896.50;5011416;28;20129;-71
2021/04/16 00:22:36;;;;;;;17.95;14.43;;;;;;;8.10;66.29;100891.44;5010828;28;20126;-72
2021/04/16 00:25:05;;;;;;;16.88;13.65;;;;;;;8.19;65.73;100892.88;5011350;28;20076;-72
2021/04/16 00:27:32;;;;;;;21.88;14.50;;;;;;;8.15;66.51;100886.94;5011193;28;20147;-72
2021/04/16 00:29:58;;;;;;;19.75;14.30;;;;;;;7.81;67.11;100880.13;5011162;28;20088;-71
2021/04/16 00:32:25;;;;;;;15.93;13.93;;;;;;;7.94;66.55;100880.63;5011396;28;20122;-72
2021/04/16 00:34:51;;;;;;;19.05;14.15;;;;;;;7.81;67.19;100887.06;5009467;28;20045;-72
2021/04/16 00:37:17;;;;;;;19.25;15.85;;;;;;;7.75;66.78;100885.50;5010751;28;20489;-72
2021/04/16 00:39:44;;;;;;;16.98;14.23;;;;;;;7.83;66.60;100880.09;5010913;28;20756;-72
2021/04/16 00:42:10;;;;;;;18.00;15.20;;;;;;;7.93;66.54;100875.47;5011202;28;20042;-72
2021/04/16 00:44:38;;;;;;;19.23;15.85;;;;;;;7.82;66.21;100881.81;5010456;28;20046;-71
2021/04/16 00:47:13;;;;;;;24.98;14.45;;;;;;;7.77;66.65;100885.44;5011768;28;20121;-71
2021/04/16 00:49:43;;;;;;;21.30;16.15;;;;;;;7.80;67.14;100881.03;5010031;28;20593;-71
2021/04/16 00:52:12;;;;;;;19.38;14.35;;;;;;;7.93;65.87;100880.66;5011341;28;20049;-71
2021/04/16 00:54:41;;;;;;;15.43;13.90;;;;;;;7.81;67.04;100877.53;5010140;28;20128;-70
2021/04/16 00:57:11;;;;;;;17.95;14.25;;;;;;;7.73;66.13;100884.69;5011095;28;20128;-71
2021/04/16 00:59:46;;;;;;;15.25;12.88;;;;;;;7.73;66.49;100882.09;5010759;28;20093;-70
2021/04/16 01:02:12;;;;;;;;;;;;;;;7.83;65.67;100882.69;5011430;28;20056;-70
2021/04/16 01:04:39;;;;;;;19.10;14.85;;;;;;;7.69;66.46;100882.22;5010036;28;19979;-70
2021/04/16 01:07:07;;;;;;;16.45;14.48;;;;;;;7.66;66.34;100882.28;5014676;28;20517;-70
2021/04/16 01:09:35;;;;;;;23.60;16.02;;;;;;;7.61;66.12;100885.00;5014207;28;20164;-70
2021/04/16 01:12:04;;;;;;;20.33;14.18;;;;;;;7.61;66.30;100893.66;5014577;28;20433;-70
2021/04/16 01:14:34;;;;;;;18.85;15.52;;;;;;;7.60;65.90;100891.09;5014335;28;20049;-70
2021/04/16 01:17:01;;;;;;;20.73;15.77;;;;;;;7.52;65.64;100893.06;5013965;28;20076;-73
2021/04/16 01:20:17;;;;;;;18.95;14.27;;;;;;;7.60;65.45;100888.50;5014031;28;20042;-73
2021/04/16 01:23:03;;;;;;;18.48;14.43;;;;;;;7.61;65.27;100890.19;5013110;28;20129;-72
2021/04/16 01:25:30;;;;;;;16.75;13.82;;;;;;;7.65;65.80;100889.22;5015154;28;20461;-70
2021/04/16 01:27:56;;;;;;;19.83;14.93;;;;;;;7.46;66.01;100893.25;5025193;28;20072;-71
2021/04/16 01:30:27;;;;;;;23.75;16.02;;;;;;;7.35;66.16;100894.38;5027912;28;20041;-81
2021/04/16 01:32:54;;;;;;;17.80;14.45;;;;;;;7.44;66.59;100893.25;5032835;28;20042;-79
2021/04/16 01:35:33;;;;;;;20.00;14.85;;;;;;;7.41;66.73;100882.97;5036079;28;20051;-78
2021/04/16 01:38:03;;;;;;;17.38;14.65;;;;;;;7.42;66.35;100889.03;5031249;28;20046;-80
2021/04/16 01:40:30;;;;;;;19.00;15.52;;;;;;;7.51;66.01;100888.75;5031935;28;20081;-80
2021/04/16 01:42:57;;;;;;;20.08;15.13;;;;;;;7.60;65.97;100884.16;5028840;28;20038;-79
2021/04/16 01:45:28;;;;;;;21.10;15.48;;;;;;;7.49;66.44;100886.19;5035486;28;20102;-79
2021/04/16 01:48:00;;;;;;;20.23;14.90;;;;;;;7.40;66.06;100901.16;5031784;28;20072;-79
2021/04/16 01:50:29;;;;;;;19.30;14.07;;;;;;;7.38;66.99;100897.75;5034207;28;20095;-79
2021/04/16 01:53:00;;;;;;;17.98;14.75;;;;;;;7.39;66.82;100894.28;5049505;28;20091;-79
2021/04/16 01:55:27;;;;;;;18.92;13.65;;;;;;;7.42;66.48;100895.06;5029676;28;20069;-77
2021/04/16 01:57:53;;;;;;;20.75;14.57;;;;;;;7.39;67.29;100891.69;5027410;28;20046;-78
2021/04/16 02:00:30;;;;;;;18.40;15.20;;;;;;;7.43;66.77;100888.13;5028386;28;20075;-79
2021/04/16 02:02:56;;;;;;;17.73;14.45;;;;;;;7.18;67.95;100893.09;5029199;28;20558;-79
2021/04/16 02:05:24;;;;;;;19.00;16.02;;;;;;;7.31;67.37;100892.75;5031183;28;20435;-78
2021/04/16 02:07:53;;;;;;;19.42;14.63;;;;;;;7.31;67.30;100891.91;5032790;28;20484;-78
2021/04/16 02:10:20;;;;;;;21.98;15.10;;;;;;;7.33;66.51;100884.91;5032233;28;20038;-79
2021/04/16 02:12:46;;;;;;;18.85;15.52;;;;;;;7.48;66.32;100886.25;5034210;28;20496;-80
2021/04/16 02:15:14;;;;;;;18.17;15.13;;;;;;;7.45;65.89;100884.56;5034481;28;20546;-70
2021/04/16 02:17:40;;;;;;;17.48;14.27;;;;;;;7.30;67.52;100883.28;5028234;28;20068;-70
2021/04/16 02:20:20;;;;;;;19.23;15.20;;;;;;;7.34;66.42;100879.69;5026094;28;20030;-71
2021/04/16 02:22:47;;;;;;;23.20;14.40;;;;;;;7.33;66.95;100883.16;5029135;28;20488;-71
2021/04/16 02:25:14;;;;;;;20.38;13.75;;;;;;;7.23;67.49;100889.47;5026928;28;20038;-71
2021/04/16 02:27:41;;;;;;;19.20;14.75;;;;;;;7.20;66.89;100883.53;5031159;28;20045;-70
2021/04/16 02:30:11;;;;;;;24.73;15.55;;;;;;;7.30;66.89;100885.00;5032971;28;20037;-70
2021/04/16 02:32:38;;;;;;;18.30;15.18;;;;;;;7.32;66.55;100881.47;5032699;28;20038;-69
2021/04/16 02:35:06;;;;;;;20.85;15.30;;;;;;;7.31;67.11;100877.19;5032713;28;20441;-70
2021/04/16 02:37:33;;;;;;;19.20;16.33;;;;;;;7.17;67.52;100879.28;5027606;28;20096;-70
2021/04/16 02:39:59;;;;;;;17.42;14.77;;;;;;;7.17;67.46;100879.28;5028703;28;20038;-70
2021/04/16 02:42:26;;;;;;;21.42;15.60;;;;;;;7.17;67.27;100873.25;5027784;28;20041;-69
2021/04/16 02:44:54;;;;;;;17.90;14.00;;;;;;;7.24;66.82;100867.00;5031337;28;20500;-70
2021/04/16 02:47:20;;;;;;;17.52;14.57;;;;;;;7.07;67.69;100876.06;5025744;28;20131;-70
2021/04/16 02:49:47;;;;;;;16.92;14.10;;;;;;;7.14;67.14;100865.53;5022738;28;20049;-69
2021/04/16 02:52:13;;;;;;;19.52;14.10;;;;;;;7.10;67.53;100872.56;5026233;28;20085;-70
2021/04/16 02:54:40;;;;;;;21.27;14.00;;;;;;;7.06;67.13;100874.38;5026273;28;20499;-70
2021/04/16 02:57:07;;;;;;;17.88;13.90;;;;;;;7.07;66.87;100875.22;5029852;28;20524;-70
2021/04/16 02:59:34;;;;;;;18.60;12.50;;;;;;;7.08;66.62;100874.31;5028768;28;20049;-69
2021/04/16 03:02:00;;;;;;;14.27;11.57;;;;;;;6.96;67.41;100872.03;5030791;28;20080;-69
2021/04/16 03:04:27;;;;;;;19.33;14.15;;;;;;;6.89;67.39;100873.94;5025939;28;20037;-68
2021/04/16 03:06:53;;;;;;;17.55;13.80;;;;;;;6.82;67.83;100872.41;5033247;28;20049;-68
2021/04/16 03:09:20;;;;;;;17.70;14.85;;;;;;;6.81;67.45;100871.53;5033736;28;20037;-68
2021/04/16 03:11:46;;;;;;;16.55;13.48;;;;;;;6.98;66.54;100872.88;5033927;28;20049;-68
2021/04/16 03:14:13;;;;;;;19.35;15.50;;;;;;;6.95;66.75;100875.53;5033175;28;20124;-68
2021/04/16 03:16:39;;;;;;;24.38;14.95;;;;;;;6.86;67.02;100866.22;5034019;28;20045;-68
2021/04/16 03:19:09;;;;;;;22.17;15.18;;;;;;;6.79;67.25;100872.47;5033062;28;20033;-67
2021/04/16 03:21:36;;;;;;;22.75;18.05;;;;;;;6.73;67.68;100876.06;5033588;28;20095;-68
2021/04/16 03:24:04;;;;;;;22.77;15.73;;;;;;;6.70;67.97;100868.34;5033087;28;20488;-68
2021/04/16 03:26:30;;;;;;;18.13;15.10;;;;;;;6.70;68.34;100877.88;5033227;28;20045;-69
2021/04/16 03:28:59;;;;;;;22.83;16.45;;;;;;;6.68;68.48;100874.47;5033214;28;20065;-69
2021/04/16 03:31:27;;;;;;;20.27;16.58;;;;;;;6.82;67.57;100877.59;5033352;28;20069;-69
2021/04/16 03:33:56;;;;;;;23.98;17.20;;;;;;;6.59;69.37;100877.28;5033101;28;20084;-69
2021/04/16 03:36:23;;;;;;;19.92;17.15;;;;;;;6.61;68.47;100876.38;5032980;28;20370;-69
2021/04/16 03:38:49;;;;;;;25.70;16.90;;;;;;;6.75;67.83;100873.44;5027996;28;20045;-69
2021/04/16 03:41:16;;;;;;;25.25;16.48;;;;;;;6.70;68.43;100876.13;5030869;28;20504;-68
2021/04/16 03:43:44;;;;;;;21.25;16.05;;;;;;;6.68;68.12;100864.94;5031355;28;20073;-69
2021/04/16 03:46:11;;;;;;;22.23;16.42;;;;;;;6.71;67.84;100874.38;5033231;28;20061;-69
2021/04/16 03:48:38;;;;;;;19.30;15.13;;;;;;;6.75;67.58;100873.44;5032292;28;20048;-69
2021/04/16 03:51:07;;;;;;;18.42;14.43;;;;;;;6.97;66.42;100872.00;5031906;28;20054;-68
2021/04/16 03:53:36;;;;;;;21.38;15.50;;;;;;;6.72;67.17;100870.94;5032274;28;20060;-69
2021/04/16 03:56:06;;;;;;;22.05;15.63;;;;;;;6.80;66.21;100863.78;5014695;28;20046;-69
2021/04/16 03:58:34;;;;;;;17.13;13.98;;;;;;;6.71;67.23;100869.19;5012319;28;20097;-69
2021/04/16 04:01:02;;;;;;;19.00;15.90;;;;;;;6.67;67.13;100868.44;5011576;28;20069;-69
2021/04/16 04:03:29;;;;;;;22.98;17.20;;;;;;;6.66;67.03;100871.94;5011929;28;20038;-71
2021/04/16 04:05:56;;;;;;;18.98;14.85;;;;;;;6.55;67.93;100864.41;5010222;28;20546;-71
2021/04/16 04:08:22;;;;;;;20.50;14.65;;;;;;;6.42;68.48;100864.72;5012469;28;20045;-71
2021/04/16 04:10:49;;;;;;;19.30;14.77;;;;;;;6.50;67.83;100865.41;5010720;28;20038;-69
2021/04/16 04:13:16;;;;;;;18.73;14.95;;;;;;;6.55;67.67;100863.53;5011764;28;20050;-69
2021/04/16 04:15:43;;;;;;;20.50;14.95;;;;;;;6.52;68.02;100867.06;5018330;28;20077;-69
2021/04/16 04:18:25;;;;;;;21.40;15.98;;;;;;;6.39;68.55;100865.66;5010346;28;20054;-69
2021/04/16 04:20:51;;;;;;;17.15;15.18;;;;;;;6.44;68.10;100868.09;5010905;28;20057;-69
2021/04/16 04:23:18;;;;;;;19.15;14.95;;;;;;;6.51;67.75;100865.34;5010988;28;20038;-69
2021/04/16 04:25:44;;;;;;;18.13;14.52;;;;;;;6.45;68.49;100864.66;5010466;28;20066;-69
2021/04/16 04:28:11;;;;;;;17.40;14.80;;;;;;;6.39;67.89;100862.19;5011252;28;20076;-70
2021/04/16 04:30:37;;;;;;;24.55;16.02;;;;;;;6.51;68.06;100856.75;5010735;28;20140;-70
2021/04/16 04:33:05;;;;;;;18.65;15.50;;;;;;;6.39;67.95;100864.78;5009524;28;20137;-70
2021/04/16 04:35:33;;;;;;;21.52;15.25;;;;;;;6.44;68.17;100860.34;5009720;28;20065;-70
2021/04/16 04:38:00;;;;;;;17.58;13.55;;;;;;;6.48;67.61;100865.41;5016608;28;20049;-70
2021/04/16 04:40:27;;;;;;;17.77;13.32;;;;;;;6.50;67.42;100866.25;5010815;28;20568;-70
2021/04/16 04:42:54;;;;;;;20.55;13.52;;;;;;;6.51;67.73;100869.69;5010346;28;20488;-70
2021/04/16 04:45:22;;;;;;;18.10;13.77;;;;;;;6.42;68.00;100878.50;5010964;28;20133;-69
2021/04/16 04:47:49;;;;;;;20.33;15.00;;;;;;;6.32;67.04;100879.59;5009546;28;20046;-69
2021/04/16 04:50:16;;;;;;;18.15;16.10;;;;;;;6.24;67.80;100874.59;5010163;28;20080;-69
2021/04/16 04:52:43;;;;;;;23.23;14.02;;;;;;;6.40;67.58;100871.69;5026153;28;20642;-69
2021/04/16 04:55:17;;;;;;;18.67;15.40;;;;;;;6.40;68.28;100874.28;5037887;28;20128;-68
2021/04/16 04:57:44;;;;;;;19.70;15.77;;;;;;;6.36;68.55;100883.00;5011547;28;20042;-73
2021/04/16 05:00:13;;;;;;;20.50;16.35;;;;;;;6.43;68.16;100879.38;5009533;28;20121;-72
2021/04/16 05:02:40;;;;;;;21.17;16.08;;;;;;;6.58;67.99;100879.00;5013654;28;20068;-72
2021/04/16 05:05:08;;;;;;;21.45;16.38;;;;;;;6.54;68.14;100887.72;5023594;28;20132;-72
2021/04/16 05:07:35;;;;;;;21.00;16.17;;;;;;;6.88;67.73;100894.72;5032152;28;20095;-74
2021/04/16 05:10:03;;;;;;;19.70;15.52;;;;;;;7.26;66.48;100894.59;5031634;28;20041;-72
2021/04/16 05:12:29;;;;;;;21.75;15.75;;;;;;;7.47;66.06;100892.34;5031657;28;20420;-73
2021/04/16 05:14:55;;;;;;;16.48;14.63;;;;;;;7.52;66.27;100888.72;5025415;28;20516;-70
2021/04/16 05:17:22;;;;;;;26.75;14.88;;;;;;;7.76;66.24;100887.19;5031530;28;20107;-71
2021/04/16 05:19:49;;;;;;;24.52;15.18;;;;;;;7.82;65.81;100876.63;5032093;28;20124;-72
2021/04/16 05:22:15;;;;;;;18.73;14.68;;;;;;;8.08;65.51;100880.22;5030363;28;20084;-73
2021/04/16 05:24:42;;;;;;;20.55;14.98;;;;;;;8.23;64.85;100877.16;5027298;28;20076;-73
2021/04/16 05:27:14;;;;;;;16.33;14.50;;;;;;;8.48;63.85;100879.91;5031630;28;20408;-72
2021/04/16 05:29:40;;;;;;;21.77;13.38;;;;;;;8.92;62.34;100873.25;5031614;28;20045;-73
2021/04/16 05:32:08;;;;;;;21.98;14.90;;;;;;;9.24;61.25;100875.69;5031667;28;20041;-73
2021/04/16 05:34:35;;;;;;;19.75;13.38;;;;;;;9.42;60.51;100883.69;5031621;28;20033;-73
2021/04/16 05:37:02;;;;;;;19.20;14.07;;;;;;;9.59;59.18;100883.13;5031158;28;20099;-74
2021/04/16 05:39:29;;;;;;;24.88;15.93;;;;;;;9.86;59.27;100888.22;5031493;28;20050;-73
2021/04/16 05:41:56;;;;;;;21.35;15.60;;;;;;;10.29;58.21;100887.50;5031935;28;20045;-73
2021/04/16 05:44:23;;;;;;;28.10;16.38;;;;;;;10.35;57.10;100889.84;5030815;28;20072;-69
2021/04/16 05:46:49;;;;;;;28.92;18.38;;;;;;;10.45;56.98;100893.81;5031763;28;20080;-71
2021/04/16 05:49:16;;;;;;;27.80;18.08;;;;;;;10.91;55.18;100894.56;5031457;28;20053;-74
2021/04/16 05:51:42;;;;;;;26.67;18.58;;;;;;;11.01;54.24;100895.88;5033191;28;20084;-70
2021/04/16 05:54:10;;;;;;;27.17;16.45;;;;;;;10.49;55.86;100900.59;5023997;28;20455;-73
2021/04/16 05:56:36;;;;;;;22.38;14.57;;;;;;;9.67;57.78;100906.25;5033871;28;20037;-73
2021/04/16 05:59:03;;;;;;;23.65;16.23;;;;;;;9.55;57.97;100906.69;5032835;28;20045;-74
2021/04/16 06:01:32;;;;;;;22.92;16.13;;;;;;;10.08;57.57;100904.75;5031738;28;20095;-73
2021/04/16 06:03:59;;;;;;;21.27;15.80;;;;;;;9.86;58.11;100906.47;5031105;28;20447;-72
2021/04/16 06:06:25;;;;;;;20.45;14.68;;;;;;;10.45;57.36;100909.44;5028100;28;20096;-73
2021/04/16 06:08:52;;;;;;;18.40;15.32;;;;;;;10.91;56.08;100902.38;5031165;28;20053;-72
2021/04/16 06:11:18;;;;;;;19.60;16.15;;;;;;;10.97;54.65;100909.97;5028369;28;20034;-74
2021/04/16 06:13:45;;;;;;;23.88;16.27;;;;;;;11.27;55.12;100906.97;5031208;28;20405;-72
2021/04/16 06:16:11;;;;;;;20.23;15.65;;;;;;;11.54;53.93;100903.19;5032790;28;20053;-77
2021/04/16 06:18:38;;;;;;;17.77;14.20;;;;;;;12.48;51.87;100902.44;5028865;28;20049;-73
2021/04/16 06:21:05;;;;;;;15.27;13.25;;;;;;;12.02;52.56;100896.72;5014185;28;20037;-71
2021/04/16 06:23:33;;;;;;;19.95;13.15;;;;;;;11.93;52.76;100902.38;5012946;28;20144;-75
2021/04/16 06:26:00;;;;;;;18.17;14.55;;;;;;;12.29;52.16;100902.44;5013484;28;20090;-73
2021/04/16 06:28:27;;;;;;;16.42;14.60;;;;;;;12.00;51.41;100901.19;5013591;28;20050;-73
2021/04/16 06:30:54;;;;;;;23.67;15.95;;;;;;;12.40;49.58;100906.31;5032532;28;20038;-73
2021/04/16 06:33:31;;;;;;;18.77;15.95;;;;;;;12.76;50.32;100903.72;5034054;28;20459;-72
2021/04/16 06:36:05;;;;;;;20.42;17.00;;;;;;;12.93;48.40;100900.28;5034283;28;20105;-73
2021/04/16 06:38:40;;;;;;;16.80;15.10;;;;;;;13.03;49.57;100901.53;5034183;28;20045;-73
2021/04/16 06:41:12;;;;;;;23.63;18.33;;;;;;;13.77;47.58;100894.25;5013442;28;20132;-71
2021/04/16 06:43:46;;;;;;;21.13;17.95;;;;;;;14.61;46.55;100894.06;5012047;28;20050;-73
2021/04/16 06:46:21;;;;;;;22.50;17.75;;;;;;;14.38;45.44;100895.31;5012272;28;20130;-73
2021/04/16 06:48:48;;;;;;;21.90;17.50;;;;;;;15.12;44.44;100891.97;5013605;28;20060;-73
2021/04/16 06:51:20;;;;;;;22.70;16.38;;;;;;;15.95;43.32;100886.09;5011956;28;20050;-70
2021/04/16 06:54:03;;;;;;;21.67;16.55;;;;;;;16.35;41.99;100893.25;5018652;28;20333;-71
2021/04/16 06:56:32;;;;;;;21.15;17.17;;;;;;;16.65;41.44;100896.53;5012982;28;20065;-71
2021/04/16 06:59:16;;;;;;;27.98;18.25;;;;;;;17.29;40.55;100902.84;5012275;28;20042;-72
2021/04/16 07:01:51;;;;;;;;;;;;;;;17.76;37.68;100890.03;5013052;28;20045;-72
2021/04/16 07:04:23;;;;;;;18.40;14.95;;;;;;;17.63;38.35;100895.28;5011728;28;20000;-73
2021/04/16 07:06:53;;;;;;;23.60;17.35;;;;;;;18.26;37.03;100889.06;5012615;28;20104;-71
2021/04/16 07:09:32;;;;;;;19.25;16.40;;;;;;;18.54;36.61;100890.56;5016882;28;20087;-70
2021/04/16 07:12:14;;;;;;;21.75;18.77;;;;;;;16.07;41.68;100897.63;5032398;28;20120;-71
2021/04/16 07:14:50;;;;;;;25.25;17.38;;;;;;;17.67;39.78;100883.56;5030825;28;20133;-69
2021/04/16 07:17:20;;;;;;;22.52;17.63;;;;;;;17.44;39.08;100882.50;5032668;28;20404;-70
2021/04/16 07:19:49;;;;;;;23.30;18.48;;;;;;;18.02;38.37;100886.41;5030419;28;20420;-70
2021/04/16 07:22:20;;;;;;;23.58;18.77;;;;;;;16.82;39.00;100890.19;5032163;28;20567;-69
2021/04/16 07:24:49;;;;;;;24.15;20.23;;;;;;;17.26;39.79;100892.53;5012501;28;20042;-69
2021/04/16 07:28:14;;;;;;;25.90;19.55;;;;;;;16.39;39.73;100889.47;5012330;28;20132;-73
2021/04/16 07:30:49;;;;;;;30.25;18.63;;;;;;;16.84;40.02;100884.84;5008661;28;20045;-74
2021/04/16 07:33:29;;;;;;;22.27;18.10;;;;;;;17.13;39.71;100891.66;5031683;28;20484;-74
2021/04/16 07:36:19;;;;;;;29.27;24.50;;;;;;;16.41;41.79;100885.00;5022467;28;20065;-74
2021/04/16 07:39:14;;;;;;;21.50;19.38;;;;;;;16.77;40.03;100882.59;5024134;28;20041;-73
2021/04/16 07:41:50;;;;;;;20.20;18.05;;;;;;;16.59;42.05;100878.53;5025167;28;20037;-73
2021/04/16 07:44:38;;;;;;;21.63;19.25;;;;;;;16.24;41.24;100879.00;5026466;28;20037;-73
2021/04/16 07:47:13;;;;;;;19.70;15.82;;;;;;;17.31;39.64;100881.69;5030248;28;20069;-74
2021/04/16 07:50:09;;;;;;;28.80;19.23;;;;;;;17.74;37.82;100882.22;5026834;28;20069;-73
2021/04/16 07:52:40;;;;;;;22.05;16.42;;;;;;;17.39;37.33;100881.97;5028291;28;20046;-73
2021/04/16 07:55:23;;;;;;;21.40;16.13;;;;;;;17.39;38.15;100879.34;5025355;28;20042;-72
2021/04/16 07:57:52;;;;;;;17.30;15.50;;;;;;;16.54;40.16;100896.41;5023534;28;20121;-74
2021/04/16 08:00:22;;;;;;;19.77;15.45;;;;;;;15.95;42.12;100893.13;5028152;28;20054;-74
2021/04/16 08:03:09;;;;;;;24.20;14.80;;;;;;;17.39;39.33;100900.44;5026676;28;20077;-74
2021/04/16 08:05:46;;;;;;;15.75;12.70;;;;;;;17.14;39.87;100895.97;5030808;28;20112;-74
2021/04/16 08:08:20;;;;;;;15.77;13.23;;;;;;;17.65;39.80;100893.38;5031952;28;20546;-75
2021/04/16 08:11:06;;;;;;;11.43;9.63;;;;;;;18.22;36.30;100889.41;5032357;28;20097;-74
2021/04/16 08:13:41;;;;;;;16.58;12.85;;;;;;;17.92;37.19;100898.53;5022709;28;20096;-74
2021/04/16 08:16:33;;;;;;;16.25;13.20;;;;;;;18.17;36.40;100891.53;5024431;28;20045;-74
2021/04/16 08:19:14;;;;;;;12.07;10.88;;;;;;;18.37;36.47;100898.00;5022428;28;20069;-74
2021/04/16 08:21:46;;;;;;;12.57;11.13;;;;;;;18.76;35.14;100897.78;5026108;28;20093;-73
2021/04/16 08:24:23;;;;;;;9.23;7.95;;;;;;;18.47;33.63;100904.31;5029057;28;20038;-74
2021/04/16 08:27:06;;;;;;;15.13;9.00;;;;;;;18.37;33.43;100903.28;5029050;28;20038;-72
2021/04/16 08:29:44;;;;;;;9.25;8.30;;;;;;;18.17;33.80;100905.56;5031838;28;20038;-72
2021/04/16 08:32:28;;;;;;;29.73;8.80;;;;;;;18.37;33.55;100890.94;5027116;28;20440;-72
2021/04/16 08:35:18;;;;;;;10.45;7.88;;;;;;;19.48;32.57;100902.06;5028037;28;20527;-72
2021/04/16 08:37:51;;;;;;;14.32;8.23;;;;;;;19.07;32.40;100898.97;5028661;28;20159;-71
2021/04/16 08:40:32;;;;;;;8.52;6.47;;;;;;;19.13;31.72;100899.47;5025919;28;20509;-68
2021/04/16 08:42:59;;;;;;;9.77;8.05;;;;;;;18.44;32.68;100896.63;5029558;28;20049;-71
2021/04/16 08:45:29;;;;;;;10.77;7.90;;;;;;;18.18;33.88;100888.78;5028629;28;20065;-73
2021/04/16 08:48:21;;;;;;;10.50;9.15;;;;;;;18.17;33.90;100889.75;5031051;28;20504;-71
2021/04/16 08:50:56;;;;;;;10.30;8.07;;;;;;;19.21;32.99;100892.63;5026624;28;20472;-74
2021/04/16 08:53:23;;;;;;;7.82;6.38;;;;;;;19.27;31.11;100888.69;5019185;28;20034;-74
2021/04/16 08:55:53;;;;;;;9.75;8.68;;;;;;;18.99;31.76;100895.22;5022064;28;20077;-70
2021/04/16 08:58:33;;;;;;;10.25;9.25;;;;;;;19.70;32.42;100886.25;5021824;28;20048;-68
2021/04/16 09:01:09;;;;;;;9.23;8.32;;;;;;;19.25;31.29;100890.63;5025026;28;20038;-68
2021/04/16 09:03:44;;;;;;;8.90;8.00;;;;;;;18.68;31.75;100881.66;5029525;28;20095;-68
2021/04/16 09:06:31;;;;;;;10.15;5.13;;;;;;;18.59;31.46;100887.59;5031019;28;20436;-69
2021/04/16 09:08:59;;;;;;;6.88;5.90;;;;;;;18.49;32.74;100883.94;5030174;28;20128;-68
2021/04/16 09:11:44;;;;;;;9.32;7.97;;;;;;;18.55;31.98;100886.13;5025534;28;20056;-69
2021/04/16 09:14:29;;;;;;;9.43;8.52;;;;;;;18.71;32.36;100884.06;5024056;28;20041;-69
2021/04/16 09:16:58;;;;;;;9.32;8.43;;;;;;;18.10;33.22;100880.56;5027428;28;20041;-70
2021/04/16 09:19:25;;;;;;;10.13;7.53;;;;;;;17.92;33.74;100869.53;5022271;28;20041;-68
2021/04/16 09:22:04;;;;;;;12.20;8.48;;;;;;;17.60;35.43;100868.28;5023114;28;20068;-67
2021/04/16 09:24:55;;;;;;;7.65;6.40;;;;;;;17.88;34.64;100864.56;5027207;28;20489;-76
2021/04/16 09:27:35;;;;;;;8.98;6.45;;;;;;;16.82;36.74;100860.41;5034284;28;20515;-76
2021/04/16 09:30:08;;;;;;;7.55;6.05;;;;;;;16.94;36.06;100863.06;5035815;28;20046;-73
2021/04/16 09:32:41;;;;;;;7.72;6.18;;;;;;;16.93;36.26;100861.38;5024106;28;20045;-75
2021/04/16 09:35:17;;;;;;;9.95;6.63;;;;;;;16.42;35.92;100858.56;5021519;28;20485;-69
2021/04/16 09:37:45;;;;;;;7.43;6.15;;;;;;;16.24;36.67;100850.06;5021785;28;20072;-70
2021/04/16 09:40:21;;;;;;;9.63;6.95;;;;;;;15.86;36.94;100854.25;5015149;28;20084;-69
2021/04/16 09:43:21;;;;;;;6.28;5.68;;;;;;;15.95;37.93;100856.31;5014422;28;20121;-69
2021/04/16 09:45:51;;;;;;;7.60;6.90;;;;;;;15.76;37.84;100842.63;5014717;28;20485;-68
2021/04/16 09:48:17;;;;;;;8.43;7.07;;;;;;;15.22;38.02;100847.66;5014750;28;20057;-69
2021/04/16 09:50:50;;;;;;;5.65;5.10;;;;;;;15.30;37.95;100840.16;5024578;28;20058;-69
2021/04/16 09:53:34;;;;;;;7.07;6.30;;;;;;;15.27;38.27;100846.44;5034437;28;20048;-68
2021/04/16 09:56:01;;;;;;;10.15;5.97;;;;;;;15.38;39.39;100835.28;5021796;28;20137;-67
2021/04/16 09:58:35;;;;;;;11.68;6.85;;;;;;;15.10;38.81;100836.09;5014765;28;20050;-74
2021/04/16 10:01:16;;;;;;;9.40;7.33;;;;;;;15.47;38.68;100826.84;5014982;28;20042;-74
2021/04/16 10:03:56;;;;;;;8.13;7.30;;;;;;;15.34;40.18;100833.78;5015458;28;20072;-74
2021/04/16 10:06:26;;;;;;;8.82;7.72;;;;;;;15.42;38.30;100827.13;5015500;28;20042;-74
2021/04/16 10:09:04;;;;;;;11.57;6.90;;;;;;;15.41;39.61;100822.81;5013737;28;20073;-74
2021/04/16 10:11:32;;;;;;;7.75;6.90;;;;;;;14.82;38.71;100836.88;5015021;28;20462;-74
2021/04/16 10:14:35;;;;;;;12.75;6.93;;;;;;;14.89;39.06;100828.56;5014231;28;20125;-74
2021/04/16 10:17:13;;;;;;;11.10;7.38;;;;;;;14.51;39.61;100833.41;5012771;28;20046;-74
2021/04/16 10:19:49;;;;;;;8.13;6.90;;;;;;;14.87;38.96;100827.81;5014199;28;20049;-74
2021/04/16 10:22:31;;;;;;;9.27;6.68;;;;;;;15.30;39.16;100827.03;5033201;28;20045;-74
2021/04/16 10:29:29;;;;;;;7.43;6.60;;;;;;;14.93;38.54;100811.69;5013821;28;20058;-74
2021/04/16 11:20:45;;;;;;;8.57;6.07;;;;;;;15.23;35.07;100766.13;5012632;28;20046;-74
2021/04/16 12:40:58;;;;;;;9.43;6.10;;;;;;;14.69;39.29;100731.78;5011607;28;20137;-76
2021/04/16 12:43:25;;;;;;;7.18;5.10;;;;;;;14.54;34.58;100730.03;5009856;28;20069;-75
2021/04/16 12:45:55;;;;;;;5.03;4.53;;;;;;;14.44;34.76;100721.88;5011209;28;20133;-76
2021/04/16 12:48:25;;;;;;;5.95;4.68;;;;;;;14.56;35.88;100718.53;5010261;28;20698;-75
2021/04/16 12:50:52;;;;;;;10.63;7.15;;;;;;;14.54;37.31;100728.28;5021470;28;20049;-76
2021/04/16 12:53:20;;;;;;;8.90;6.85;;;;;;;14.34;38.07;100716.31;5030911;28;20080;-75
2021/04/16 12:55:47;;;;;;;7.82;6.75;;;;;;;14.54;37.92;100720.44;5019524;28;20358;-76
2021/04/16 12:58:24;;;;;;;8.75;5.70;;;;;;;14.40;36.99;100718.56;5011327;28;20042;-75
2021/04/16 13:00:51;;;;;;;5.93;5.32;;;;;;;14.25;36.90;100722.06;5011990;28;20405;-75
2021/04/16 13:03:18;;;;;;;6.13;5.18;;;;;;;14.51;35.81;100712.72;5015115;28;20065;-75
2021/04/16 13:05:49;;;;;;;9.45;5.22;;;;;;;14.33;36.33;100713.78;5014378;28;20038;-76
2021/04/16 13:08:17;;;;;;;9.52;6.70;;;;;;;14.41;36.32;100715.00;5015211;28;20042;-75
2021/04/16 13:10:44;;;;;;;5.55;4.75;;;;;;;14.37;36.83;100710.88;5014835;28;20129;-75
2021/04/16 13:13:13;;;;;;;5.15;4.13;;;;;;;14.28;35.94;100710.56;5015723;28;20485;-75
2021/04/16 13:15:40;;;;;;;7.50;5.55;;;;;;;14.43;36.75;100712.28;5015378;28;20588;-75
2021/04/16 13:18:27;;;;;;;5.05;4.55;;;;;;;14.31;36.85;100705.97;5016612;28;20096;-75
2021/04/16 13:20:53;;;;;;;4.85;4.20;;;;;;;14.40;36.57;100700.22;5016019;28;20053;-75
2021/04/16 13:23:20;;;;;;;8.32;6.35;;;;;;;14.26;38.10;100699.31;5019634;28;20116;-75
2021/04/16 13:25:47;;;;;;;5.47;4.55;;;;;;;14.37;37.41;100692.50;5020104;28;20050;-75
2021/04/16 13:28:14;;;;;;;7.95;4.75;;;;;;;14.51;36.53;100694.34;5014593;28;20038;-75
2021/04/16 13:30:40;;;;;;;6.30;4.15;;;;;;;14.42;35.58;100685.22;5014070;28;20053;-75
2021/04/16 13:33:16;;;;;;;7.88;4.57;;;;;;;14.23;35.79;100692.47;5014656;28;20113;-76
2021/04/16 13:35:54;;;;;;;6.00;4.63;;;;;;;14.10;37.19;100686.25;5013558;28;20723;-76
2021/04/16 13:38:27;;;;;;;6.18;4.15;;;;;;;14.28;36.82;100672.09;5015651;28;20093;-76
2021/04/16 13:40:56;;;;;;;9.45;4.80;;;;;;;14.15;36.65;100674.56;5014324;28;20149;-75
2021/04/16 13:43:23;;;;;;;7.10;4.57;;;;;;;14.24;36.06;100672.34;5014716;28;20050;-75
2021/04/16 13:45:50;;;;;;;5.50;4.40;;;;;;;14.32;36.17;100664.84;5013674;28;20444;-76